sensor_id;sensor_type;location;lat;lon;timestamp;temperature;humidity
7704;DHT22;3894;49.700;10.770;2023-07-31T00:00:24;16.50;99.90
7704;DHT22;3894;49.700;10.770;2023-07-31T00:02:49;16.50;99.90
7704;DHT22;3894;49.700;10.770;2023-07-31T00:05:15;16.40;99.90
7704;DHT22;3894;49.700;10.770;2023-07-31T00:07:41;16.50;99.90
7704;DHT22;3894;49.700;10.770;2023-07-31T00:10:07;16.40;99.90
7704;DHT22;3894;49.700;10.770;2023-07-31T00:12:32;16.40;99.90
7704;DHT22;3894;49.700;10.770;2023-07-31T00:14:58;16.50;99.90
7704;DHT22;3894;49.700;10.770;2023-07-31T00:17:24;16.40;99.90
7704;DHT22;3894;49.700;10.770;2023-07-31T00:19:49;16.40;99.90
7704;DHT22;3894;49.700;10.770;2023-07-31T00:22:16;16.40;99.90
7704;DHT22;3894;49.700;10.770;2023-07-31T00:24:41;16.50;99.90
7704;DHT22;3894;49.700;10.770;2023-07-31T00:27:07;16.50;99.90
7704;DHT22;3894;49.700;10.770;2023-07-31T00:29:32;16.50;99.90
7704;DHT22;3894;49.700;10.770;2023-07-31T00:31:58;16.50;99.90
7704;DHT22;3894;49.700;10.770;2023-07-31T00:34:23;16.50;99.90
7704;DHT22;3894;49.700;10.770;2023-07-31T00:36:49;16.50;99.90
7704;DHT22;3894;49.700;10.770;2023-07-31T00:39:14;16.50;99.90
7704;DHT22;3894;49.700;10.770;2023-07-31T00:41:40;16.50;99.90
7704;DHT22;3894;49.700;10.770;2023-07-31T00:44:05;16.50;99.90
7704;DHT22;3894;49.700;10.770;2023-07-31T00:46:31;16.50;99.90
7704;DHT22;3894;49.700;10.770;2023-07-31T00:48:57;16.50;99.90
7704;DHT22;3894;49.700;10.770;2023-07-31T00:51:22;16.40;99.90
7704;DHT22;3894;49.700;10.770;2023-07-31T00:53:48;16.40;99.90
7704;DHT22;3894;49.700;10.770;2023-07-31T00:56:14;16.40;99.90
7704;DHT22;3894;49.700;10.770;2023-07-31T00:58:40;16.40;99.90
7704;DHT22;3894;49.700;10.770;2023-07-31T01:01:06;16.30;99.90
7704;DHT22;3894;49.700;10.770;2023-07-31T01:03:32;16.30;99.90
7704;DHT22;3894;49.700;10.770;2023-07-31T01:09:03;16.30;99.90
7704;DHT22;3894;49.700;10.770;2023-07-31T01:11:33;16.30;99.90
7704;DHT22;3894;49.700;10.770;2023-07-31T01:14:00;16.30;99.90
7704;DHT22;3894;49.700;10.770;2023-07-31T01:16:26;16.30;99.90
7704;DHT22;3894;49.700;10.770;2023-07-31T01:18:53;16.30;99.90
7704;DHT22;3894;49.700;10.770;2023-07-31T01:24:08;16.30;99.90
7704;DHT22;3894;49.700;10.770;2023-07-31T01:26:43;16.30;99.90
7704;DHT22;3894;49.700;10.770;2023-07-31T01:29:26;16.40;99.90
7704;DHT22;3894;49.700;10.770;2023-07-31T01:31:56;16.30;99.90
7704;DHT22;3894;49.700;10.770;2023-07-31T01:34:24;16.30;99.90
7704;DHT22;3894;49.700;10.770;2023-07-31T01:36:50;16.30;99.90
7704;DHT22;3894;49.700;10.770;2023-07-31T01:39:15;16.40;99.90
7704;DHT22;3894;49.700;10.770;2023-07-31T01:41:41;16.40;99.90
7704;DHT22;3894;49.700;10.770;2023-07-31T01:44:07;16.40;99.90
7704;DHT22;3894;49.700;10.770;2023-07-31T01:46:32;16.40;99.90
7704;DHT22;3894;49.700;10.770;2023-07-31T01:48:58;16.40;99.90
7704;DHT22;3894;49.700;10.770;2023-07-31T01:51:23;16.40;99.90
7704;DHT22;3894;49.700;10.770;2023-07-31T01:53:49;16.40;99.90
7704;DHT22;3894;49.700;10.770;2023-07-31T01:56:16;16.40;99.90
7704;DHT22;3894;49.700;10.770;2023-07-31T01:58:41;16.40;99.90
7704;DHT22;3894;49.700;10.770;2023-07-31T02:01:07;16.40;99.90
7704;DHT22;3894;49.700;10.770;2023-07-31T02:03:33;16.40;99.90
7704;DHT22;3894;49.700;10.770;2023-07-31T02:05:58;16.40;99.90
7704;DHT22;3894;49.700;10.770;2023-07-31T02:08:24;16.50;99.90
7704;DHT22;3894;49.700;10.770;2023-07-31T02:10:49;16.40;99.90
7704;DHT22;3894;49.700;10.770;2023-07-31T02:13:15;16.40;99.90
7704;DHT22;3894;49.700;10.770;2023-07-31T02:15:40;16.40;99.90
7704;DHT22;3894;49.700;10.770;2023-07-31T02:18:06;16.40;99.90
7704;DHT22;3894;49.700;10.770;2023-07-31T02:20:35;16.50;99.90
7704;DHT22;3894;49.700;10.770;2023-07-31T02:23:00;16.50;99.90
7704;DHT22;3894;49.700;10.770;2023-07-31T02:25:26;16.50;99.90
7704;DHT22;3894;49.700;10.770;2023-07-31T02:27:52;16.50;99.90
7704;DHT22;3894;49.700;10.770;2023-07-31T02:30:18;16.50;99.90
7704;DHT22;3894;49.700;10.770;2023-07-31T02:32:43;16.50;99.90
7704;DHT22;3894;49.700;10.770;2023-07-31T02:35:09;16.50;99.90
7704;DHT22;3894;49.700;10.770;2023-07-31T02:37:36;16.50;99.90
7704;DHT22;3894;49.700;10.770;2023-07-31T02:40:01;16.60;99.90
7704;DHT22;3894;49.700;10.770;2023-07-31T02:42:27;16.60;99.90
7704;DHT22;3894;49.700;10.770;2023-07-31T02:44:52;16.60;99.90
7704;DHT22;3894;49.700;10.770;2023-07-31T02:47:21;16.60;99.90
7704;DHT22;3894;49.700;10.770;2023-07-31T02:49:48;16.60;99.90
7704;DHT22;3894;49.700;10.770;2023-07-31T02:52:14;16.60;99.90
7704;DHT22;3894;49.700;10.770;2023-07-31T02:54:39;16.60;99.90
7704;DHT22;3894;49.700;10.770;2023-07-31T02:57:05;16.60;99.90
7704;DHT22;3894;49.700;10.770;2023-07-31T02:59:31;16.60;99.90
7704;DHT22;3894;49.700;10.770;2023-07-31T03:01:56;16.60;99.90
7704;DHT22;3894;49.700;10.770;2023-07-31T03:04:22;16.60;99.90
7704;DHT22;3894;49.700;10.770;2023-07-31T03:06:47;16.60;99.90
7704;DHT22;3894;49.700;10.770;2023-07-31T03:09:15;16.60;99.90
7704;DHT22;3894;49.700;10.770;2023-07-31T03:11:40;16.60;99.90
7704;DHT22;3894;49.700;10.770;2023-07-31T03:14:06;16.50;99.90
7704;DHT22;3894;49.700;10.770;2023-07-31T03:16:31;16.60;99.90
7704;DHT22;3894;49.700;10.770;2023-07-31T03:18:57;16.60;99.90
7704;DHT22;3894;49.700;10.770;2023-07-31T03:21:23;16.60;99.90
7704;DHT22;3894;49.700;10.770;2023-07-31T03:23:48;16.60;99.90
7704;DHT22;3894;49.700;10.770;2023-07-31T03:26:14;16.60;99.90
7704;DHT22;3894;49.700;10.770;2023-07-31T03:28:39;16.60;99.90
7704;DHT22;3894;49.700;10.770;2023-07-31T03:31:05;16.60;99.90
7704;DHT22;3894;49.700;10.770;2023-07-31T03:33:31;16.60;99.90
7704;DHT22;3894;49.700;10.770;2023-07-31T03:35:57;16.60;99.90
7704;DHT22;3894;49.700;10.770;2023-07-31T03:38:22;16.60;99.90
7704;DHT22;3894;49.700;10.770;2023-07-31T03:40:48;16.60;99.90
7704;DHT22;3894;49.700;10.770;2023-07-31T03:43:15;16.50;99.90
7704;DHT22;3894;49.700;10.770;2023-07-31T03:45:40;16.50;99.90
7704;DHT22;3894;49.700;10.770;2023-07-31T03:48:06;16.50;99.90
7704;DHT22;3894;49.700;10.770;2023-07-31T03:50:33;16.50;99.90
7704;DHT22;3894;49.700;10.770;2023-07-31T03:52:59;16.50;99.90
7704;DHT22;3894;49.700;10.770;2023-07-31T03:55:24;16.40;99.90
7704;DHT22;3894;49.700;10.770;2023-07-31T03:57:50;16.40;99.90
7704;DHT22;3894;49.700;10.770;2023-07-31T04:00:15;16.40;99.90
7704;DHT22;3894;49.700;10.770;2023-07-31T04:02:41;16.40;99.90
7704;DHT22;3894;49.700;10.770;2023-07-31T04:05:07;16.40;99.90
7704;DHT22;3894;49.700;10.770;2023-07-31T04:07:33;16.40;99.90
7704;DHT22;3894;49.700;10.770;2023-07-31T04:09:59;16.40;99.90
7704;DHT22;3894;49.700;10.770;2023-07-31T04:12:24;16.40;99.90
7704;DHT22;3894;49.700;10.770;2023-07-31T04:14:51;16.40;99.90
7704;DHT22;3894;49.700;10.770;2023-07-31T04:17:18;16.40;99.90
7704;DHT22;3894;49.700;10.770;2023-07-31T04:19:43;16.40;99.90
7704;DHT22;3894;49.700;10.770;2023-07-31T04:22:09;16.40;99.90
7704;DHT22;3894;49.700;10.770;2023-07-31T04:24:34;16.40;99.90
7704;DHT22;3894;49.700;10.770;2023-07-31T04:27:00;16.40;99.90
7704;DHT22;3894;49.700;10.770;2023-07-31T04:29:25;16.40;99.90
7704;DHT22;3894;49.700;10.770;2023-07-31T04:31:51;16.40;99.90
7704;DHT22;3894;49.700;10.770;2023-07-31T04:34:16;16.40;99.90
7704;DHT22;3894;49.700;10.770;2023-07-31T04:36:42;16.40;99.90
7704;DHT22;3894;49.700;10.770;2023-07-31T04:39:07;16.40;99.90
7704;DHT22;3894;49.700;10.770;2023-07-31T04:41:33;16.50;99.90
7704;DHT22;3894;49.700;10.770;2023-07-31T04:43:59;16.50;99.90
7704;DHT22;3894;49.700;10.770;2023-07-31T04:46:25;16.50;99.90
7704;DHT22;3894;49.700;10.770;2023-07-31T04:48:50;16.50;99.90
7704;DHT22;3894;49.700;10.770;2023-07-31T04:51:16;16.50;99.90
7704;DHT22;3894;49.700;10.770;2023-07-31T04:53:41;16.60;99.90
7704;DHT22;3894;49.700;10.770;2023-07-31T04:56:07;16.60;99.90
7704;DHT22;3894;49.700;10.770;2023-07-31T04:58:33;16.60;99.90
7704;DHT22;3894;49.700;10.770;2023-07-31T05:00:58;16.70;99.90
7704;DHT22;3894;49.700;10.770;2023-07-31T05:03:24;16.70;99.90
7704;DHT22;3894;49.700;10.770;2023-07-31T05:05:50;16.70;99.90
7704;DHT22;3894;49.700;10.770;2023-07-31T05:08:16;16.80;99.90
7704;DHT22;3894;49.700;10.770;2023-07-31T05:10:44;16.70;99.90
7704;DHT22;3894;49.700;10.770;2023-07-31T05:13:09;16.80;99.90
7704;DHT22;3894;49.700;10.770;2023-07-31T05:15:35;16.80;99.90
7704;DHT22;3894;49.700;10.770;2023-07-31T05:18:00;16.80;99.90
7704;DHT22;3894;49.700;10.770;2023-07-31T05:20:26;16.80;99.90
7704;DHT22;3894;49.700;10.770;2023-07-31T05:22:53;16.80;99.90
7704;DHT22;3894;49.700;10.770;2023-07-31T05:25:18;16.80;99.90
7704;DHT22;3894;49.700;10.770;2023-07-31T05:27:44;16.80;99.90
7704;DHT22;3894;49.700;10.770;2023-07-31T05:30:09;16.80;99.90
7704;DHT22;3894;49.700;10.770;2023-07-31T05:32:35;16.90;99.90
7704;DHT22;3894;49.700;10.770;2023-07-31T05:35:00;16.90;99.90
7704;DHT22;3894;49.700;10.770;2023-07-31T05:37:26;16.80;99.90
7704;DHT22;3894;49.700;10.770;2023-07-31T05:39:52;16.80;99.90
7704;DHT22;3894;49.700;10.770;2023-07-31T05:42:17;16.90;99.90
7704;DHT22;3894;49.700;10.770;2023-07-31T05:44:43;16.90;99.90
7704;DHT22;3894;49.700;10.770;2023-07-31T05:47:09;17.00;99.90
7704;DHT22;3894;49.700;10.770;2023-07-31T05:49:35;17.00;99.90
7704;DHT22;3894;49.700;10.770;2023-07-31T05:52:00;17.00;99.90
7704;DHT22;3894;49.700;10.770;2023-07-31T05:54:26;17.10;99.90
7704;DHT22;3894;49.700;10.770;2023-07-31T05:56:51;17.10;99.90
7704;DHT22;3894;49.700;10.770;2023-07-31T05:59:17;17.20;99.90
7704;DHT22;3894;49.700;10.770;2023-07-31T06:01:43;17.20;99.90
7704;DHT22;3894;49.700;10.770;2023-07-31T06:04:08;17.30;99.90
7704;DHT22;3894;49.700;10.770;2023-07-31T06:06:34;17.30;99.90
7704;DHT22;3894;49.700;10.770;2023-07-31T06:08:59;17.30;99.90
7704;DHT22;3894;49.700;10.770;2023-07-31T06:11:25;17.30;99.90
7704;DHT22;3894;49.700;10.770;2023-07-31T06:13:51;17.40;99.90
7704;DHT22;3894;49.700;10.770;2023-07-31T06:16:16;17.30;99.90
7704;DHT22;3894;49.700;10.770;2023-07-31T06:18:42;17.30;99.90
7704;DHT22;3894;49.700;10.770;2023-07-31T06:21:08;17.30;99.90
7704;DHT22;3894;49.700;10.770;2023-07-31T06:23:34;17.30;99.90
7704;DHT22;3894;49.700;10.770;2023-07-31T06:26:00;17.40;99.90
7704;DHT22;3894;49.700;10.770;2023-07-31T06:28:29;17.40;99.90
7704;DHT22;3894;49.700;10.770;2023-07-31T06:30:56;17.50;99.90
7704;DHT22;3894;49.700;10.770;2023-07-31T06:33:21;17.60;99.90
7704;DHT22;3894;49.700;10.770;2023-07-31T06:35:47;17.60;99.90
7704;DHT22;3894;49.700;10.770;2023-07-31T06:38:12;17.60;99.90
7704;DHT22;3894;49.700;10.770;2023-07-31T06:40:39;17.70;99.90
7704;DHT22;3894;49.700;10.770;2023-07-31T06:43:05;17.70;99.90
7704;DHT22;3894;49.700;10.770;2023-07-31T06:45:34;17.70;99.90
7704;DHT22;3894;49.700;10.770;2023-07-31T06:48:01;17.80;99.90
7704;DHT22;3894;49.700;10.770;2023-07-31T06:50:30;17.80;99.90
7704;DHT22;3894;49.700;10.770;2023-07-31T06:52:56;18.00;99.90
7704;DHT22;3894;49.700;10.770;2023-07-31T06:55:23;18.00;99.90
7704;DHT22;3894;49.700;10.770;2023-07-31T06:57:51;18.00;99.90
7704;DHT22;3894;49.700;10.770;2023-07-31T07:00:17;18.00;99.90
7704;DHT22;3894;49.700;10.770;2023-07-31T07:02:43;18.10;99.90
7704;DHT22;3894;49.700;10.770;2023-07-31T07:05:09;18.20;99.90
7704;DHT22;3894;49.700;10.770;2023-07-31T07:07:36;18.30;99.90
7704;DHT22;3894;49.700;10.770;2023-07-31T07:10:01;18.30;99.90
7704;DHT22;3894;49.700;10.770;2023-07-31T07:12:29;18.30;99.90
7704;DHT22;3894;49.700;10.770;2023-07-31T07:14:55;18.40;99.90
7704;DHT22;3894;49.700;10.770;2023-07-31T07:17:21;18.40;99.90
7704;DHT22;3894;49.700;10.770;2023-07-31T07:19:48;18.40;99.90
7704;DHT22;3894;49.700;10.770;2023-07-31T07:22:13;18.50;99.90
7704;DHT22;3894;49.700;10.770;2023-07-31T07:24:39;18.50;99.90
7704;DHT22;3894;49.700;10.770;2023-07-31T07:27:05;18.60;99.90
7704;DHT22;3894;49.700;10.770;2023-07-31T07:29:31;18.70;99.90
7704;DHT22;3894;49.700;10.770;2023-07-31T07:31:56;18.70;99.90
7704;DHT22;3894;49.700;10.770;2023-07-31T07:34:28;18.80;99.90
7704;DHT22;3894;49.700;10.770;2023-07-31T07:36:54;18.70;99.90
7704;DHT22;3894;49.700;10.770;2023-07-31T07:39:20;18.80;99.90
7704;DHT22;3894;49.700;10.770;2023-07-31T07:41:46;18.80;99.90
7704;DHT22;3894;49.700;10.770;2023-07-31T07:44:12;18.90;99.90
7704;DHT22;3894;49.700;10.770;2023-07-31T07:46:38;18.90;99.90
7704;DHT22;3894;49.700;10.770;2023-07-31T07:49:04;19.00;99.90
7704;DHT22;3894;49.700;10.770;2023-07-31T07:51:29;19.10;99.90
7704;DHT22;3894;49.700;10.770;2023-07-31T07:53:59;19.30;99.90
7704;DHT22;3894;49.700;10.770;2023-07-31T07:56:26;19.40;99.90
7704;DHT22;3894;49.700;10.770;2023-07-31T07:58:52;19.40;99.90
7704;DHT22;3894;49.700;10.770;2023-07-31T08:01:18;19.60;99.90
7704;DHT22;3894;49.700;10.770;2023-07-31T08:03:44;19.60;99.90
7704;DHT22;3894;49.700;10.770;2023-07-31T08:06:10;19.60;99.90
7704;DHT22;3894;49.700;10.770;2023-07-31T08:08:36;19.80;99.90
7704;DHT22;3894;49.700;10.770;2023-07-31T08:11:02;19.70;99.90
7704;DHT22;3894;49.700;10.770;2023-07-31T08:13:27;19.80;99.90
7704;DHT22;3894;49.700;10.770;2023-07-31T08:15:53;19.70;99.90
7704;DHT22;3894;49.700;10.770;2023-07-31T08:18:19;19.70;99.90
7704;DHT22;3894;49.700;10.770;2023-07-31T08:20:45;19.70;99.90
7704;DHT22;3894;49.700;10.770;2023-07-31T08:23:10;19.70;99.90
7704;DHT22;3894;49.700;10.770;2023-07-31T08:25:36;19.90;99.90
7704;DHT22;3894;49.700;10.770;2023-07-31T08:28:03;20.10;99.90
7704;DHT22;3894;49.700;10.770;2023-07-31T08:30:28;20.30;99.90
7704;DHT22;3894;49.700;10.770;2023-07-31T08:32:54;20.30;99.90
7704;DHT22;3894;49.700;10.770;2023-07-31T08:35:19;20.70;99.90
7704;DHT22;3894;49.700;10.770;2023-07-31T08:37:45;20.90;99.90
7704;DHT22;3894;49.700;10.770;2023-07-31T08:40:11;20.90;99.90
7704;DHT22;3894;49.700;10.770;2023-07-31T08:42:44;20.90;99.90
7704;DHT22;3894;49.700;10.770;2023-07-31T08:45:17;20.90;99.90
7704;DHT22;3894;49.700;10.770;2023-07-31T08:47:49;20.90;99.90
7704;DHT22;3894;49.700;10.770;2023-07-31T08:50:16;20.90;99.90
7704;DHT22;3894;49.700;10.770;2023-07-31T08:52:43;20.90;99.90
7704;DHT22;3894;49.700;10.770;2023-07-31T08:55:09;20.70;99.90
7704;DHT22;3894;49.700;10.770;2023-07-31T08:57:37;20.80;99.90
7704;DHT22;3894;49.700;10.770;2023-07-31T09:00:04;21.10;99.90
7704;DHT22;3894;49.700;10.770;2023-07-31T09:02:52;21.50;99.90
7704;DHT22;3894;49.700;10.770;2023-07-31T09:05:19;21.60;99.90
7704;DHT22;3894;49.700;10.770;2023-07-31T09:07:47;21.60;99.90
7704;DHT22;3894;49.700;10.770;2023-07-31T09:10:15;21.70;99.90
7704;DHT22;3894;49.700;10.770;2023-07-31T09:12:40;21.50;99.90
7704;DHT22;3894;49.700;10.770;2023-07-31T09:15:07;21.30;99.90
7704;DHT22;3894;49.700;10.770;2023-07-31T09:17:35;21.20;99.90
7704;DHT22;3894;49.700;10.770;2023-07-31T09:20:16;21.40;99.90
7704;DHT22;3894;49.700;10.770;2023-07-31T09:22:43;21.60;99.90
7704;DHT22;3894;49.700;10.770;2023-07-31T09:25:22;21.50;99.90
7704;DHT22;3894;49.700;10.770;2023-07-31T09:27:48;21.70;99.90
7704;DHT22;3894;49.700;10.770;2023-07-31T09:30:18;21.80;99.90
7704;DHT22;3894;49.700;10.770;2023-07-31T09:32:45;21.80;99.90
7704;DHT22;3894;49.700;10.770;2023-07-31T09:35:20;21.70;99.90
7704;DHT22;3894;49.700;10.770;2023-07-31T09:37:51;21.80;99.90
7704;DHT22;3894;49.700;10.770;2023-07-31T09:40:34;21.90;99.90
7704;DHT22;3894;49.700;10.770;2023-07-31T09:43:01;22.00;99.90
7704;DHT22;3894;49.700;10.770;2023-07-31T09:45:28;22.00;99.90
7704;DHT22;3894;49.700;10.770;2023-07-31T09:47:54;21.80;99.90
7704;DHT22;3894;49.700;10.770;2023-07-31T09:50:22;21.60;99.90
7704;DHT22;3894;49.700;10.770;2023-07-31T09:52:48;21.50;99.90
7704;DHT22;3894;49.700;10.770;2023-07-31T09:55:14;21.30;99.90
7704;DHT22;3894;49.700;10.770;2023-07-31T09:57:41;21.30;99.90
7704;DHT22;3894;49.700;10.770;2023-07-31T10:00:08;21.20;99.90
7704;DHT22;3894;49.700;10.770;2023-07-31T10:02:38;21.30;99.90
7704;DHT22;3894;49.700;10.770;2023-07-31T10:05:04;21.50;99.90
7704;DHT22;3894;49.700;10.770;2023-07-31T10:07:34;21.80;99.90
7704;DHT22;3894;49.700;10.770;2023-07-31T10:10:01;21.90;99.90
7704;DHT22;3894;49.700;10.770;2023-07-31T10:12:29;22.10;99.90
7704;DHT22;3894;49.700;10.770;2023-07-31T10:14:55;22.30;99.90
7704;DHT22;3894;49.700;10.770;2023-07-31T10:17:25;22.20;99.90
7704;DHT22;3894;49.700;10.770;2023-07-31T10:19:51;22.20;99.90
7704;DHT22;3894;49.700;10.770;2023-07-31T10:22:20;22.20;99.90
7704;DHT22;3894;49.700;10.770;2023-07-31T10:24:46;22.20;99.90
7704;DHT22;3894;49.700;10.770;2023-07-31T10:27:13;22.20;99.90
7704;DHT22;3894;49.700;10.770;2023-07-31T10:29:40;21.90;99.90
7704;DHT22;3894;49.700;10.770;2023-07-31T10:32:06;22.00;99.90
7704;DHT22;3894;49.700;10.770;2023-07-31T10:34:35;22.00;99.90
7704;DHT22;3894;49.700;10.770;2023-07-31T10:37:36;21.90;99.90
7704;DHT22;3894;49.700;10.770;2023-07-31T10:45:42;22.00;99.90
7704;DHT22;3894;49.700;10.770;2023-07-31T10:48:15;22.10;99.90
7704;DHT22;3894;49.700;10.770;2023-07-31T10:50:48;22.40;99.90
7704;DHT22;3894;49.700;10.770;2023-07-31T10:53:24;23.10;99.90
7704;DHT22;3894;49.700;10.770;2023-07-31T10:55:50;23.30;99.90
7704;DHT22;3894;49.700;10.770;2023-07-31T10:58:20;23.30;99.90
7704;DHT22;3894;49.700;10.770;2023-07-31T11:00:46;23.50;99.90
7704;DHT22;3894;49.700;10.770;2023-07-31T11:03:19;23.60;99.90
7704;DHT22;3894;49.700;10.770;2023-07-31T11:05:59;23.70;99.90
7704;DHT22;3894;49.700;10.770;2023-07-31T11:08:36;23.60;99.90
7704;DHT22;3894;49.700;10.770;2023-07-31T11:11:10;23.30;99.90
7704;DHT22;3894;49.700;10.770;2023-07-31T11:13:50;23.30;99.90
7704;DHT22;3894;49.700;10.770;2023-07-31T11:16:22;23.40;99.90
7704;DHT22;3894;49.700;10.770;2023-07-31T11:18:48;23.20;99.90
7704;DHT22;3894;49.700;10.770;2023-07-31T11:21:19;23.20;99.90
7704;DHT22;3894;49.700;10.770;2023-07-31T11:23:50;23.20;99.90
7704;DHT22;3894;49.700;10.770;2023-07-31T11:26:16;23.00;99.90
7704;DHT22;3894;49.700;10.770;2023-07-31T11:28:42;22.90;99.90
7704;DHT22;3894;49.700;10.770;2023-07-31T11:31:09;22.90;99.90
7704;DHT22;3894;49.700;10.770;2023-07-31T11:33:35;22.90;99.90
7704;DHT22;3894;49.700;10.770;2023-07-31T11:36:01;23.10;99.90
7704;DHT22;3894;49.700;10.770;2023-07-31T11:38:29;23.10;99.90
7704;DHT22;3894;49.700;10.770;2023-07-31T11:40:57;23.20;99.90
7704;DHT22;3894;49.700;10.770;2023-07-31T11:43:24;23.00;99.90
7704;DHT22;3894;49.700;10.770;2023-07-31T11:45:51;22.80;99.90
7704;DHT22;3894;49.700;10.770;2023-07-31T11:48:25;22.80;99.90
7704;DHT22;3894;49.700;10.770;2023-07-31T11:50:53;22.90;99.90
7704;DHT22;3894;49.700;10.770;2023-07-31T11:53:36;23.10;99.90
7704;DHT22;3894;49.700;10.770;2023-07-31T11:56:03;23.30;99.90
7704;DHT22;3894;49.700;10.770;2023-07-31T11:58:30;23.10;99.90
7704;DHT22;3894;49.700;10.770;2023-07-31T12:00:57;23.20;99.90
7704;DHT22;3894;49.700;10.770;2023-07-31T12:03:23;23.10;99.90
7704;DHT22;3894;49.700;10.770;2023-07-31T12:05:49;22.80;99.90
7704;DHT22;3894;49.700;10.770;2023-07-31T12:08:14;22.60;99.90
7704;DHT22;3894;49.700;10.770;2023-07-31T12:10:41;22.60;99.90
7704;DHT22;3894;49.700;10.770;2023-07-31T12:13:11;22.80;99.90
7704;DHT22;3894;49.700;10.770;2023-07-31T12:15:41;22.70;99.90
7704;DHT22;3894;49.700;10.770;2023-07-31T12:18:09;22.60;99.90
7704;DHT22;3894;49.700;10.770;2023-07-31T12:20:39;22.60;99.90
7704;DHT22;3894;49.700;10.770;2023-07-31T12:23:05;22.70;99.90
7704;DHT22;3894;49.700;10.770;2023-07-31T12:25:32;22.70;99.90
7704;DHT22;3894;49.700;10.770;2023-07-31T12:27:58;22.80;99.90
7704;DHT22;3894;49.700;10.770;2023-07-31T12:30:33;23.10;99.90
7704;DHT22;3894;49.700;10.770;2023-07-31T12:33:20;23.30;99.90
7704;DHT22;3894;49.700;10.770;2023-07-31T12:35:46;23.50;99.90
7704;DHT22;3894;49.700;10.770;2023-07-31T12:38:13;23.50;99.90
7704;DHT22;3894;49.700;10.770;2023-07-31T12:40:40;23.40;99.90
7704;DHT22;3894;49.700;10.770;2023-07-31T12:43:06;23.40;99.90
7704;DHT22;3894;49.700;10.770;2023-07-31T12:45:32;23.20;99.90
7704;DHT22;3894;49.700;10.770;2023-07-31T12:47:58;23.10;99.90
7704;DHT22;3894;49.700;10.770;2023-07-31T12:50:24;23.20;99.90
7704;DHT22;3894;49.700;10.770;2023-07-31T12:52:51;23.20;99.90
7704;DHT22;3894;49.700;10.770;2023-07-31T12:55:16;23.40;99.90
7704;DHT22;3894;49.700;10.770;2023-07-31T12:57:44;23.50;99.90
7704;DHT22;3894;49.700;10.770;2023-07-31T13:00:10;23.40;99.90
7704;DHT22;3894;49.700;10.770;2023-07-31T13:02:36;23.40;99.90
7704;DHT22;3894;49.700;10.770;2023-07-31T13:05:02;23.60;99.90
7704;DHT22;3894;49.700;10.770;2023-07-31T13:07:27;23.70;99.90
7704;DHT22;3894;49.700;10.770;2023-07-31T13:09:53;23.80;99.90
7704;DHT22;3894;49.700;10.770;2023-07-31T13:12:19;23.60;99.90
7704;DHT22;3894;49.700;10.770;2023-07-31T13:14:44;23.40;99.90
7704;DHT22;3894;49.700;10.770;2023-07-31T13:17:10;23.20;99.90
7704;DHT22;3894;49.700;10.770;2023-07-31T13:19:35;23.10;99.90
7704;DHT22;3894;49.700;10.770;2023-07-31T13:22:01;23.00;99.90
7704;DHT22;3894;49.700;10.770;2023-07-31T13:24:26;23.00;99.90
7704;DHT22;3894;49.700;10.770;2023-07-31T13:26:52;23.10;99.90
7704;DHT22;3894;49.700;10.770;2023-07-31T13:29:17;23.10;99.90
7704;DHT22;3894;49.700;10.770;2023-07-31T13:31:43;23.10;99.90
7704;DHT22;3894;49.700;10.770;2023-07-31T13:34:08;23.20;99.90
7704;DHT22;3894;49.700;10.770;2023-07-31T13:36:34;23.40;99.90
7704;DHT22;3894;49.700;10.770;2023-07-31T13:39:02;23.50;99.90
7704;DHT22;3894;49.700;10.770;2023-07-31T13:41:27;23.40;99.90
7704;DHT22;3894;49.700;10.770;2023-07-31T13:43:53;23.40;99.90
7704;DHT22;3894;49.700;10.770;2023-07-31T13:46:18;23.40;99.90
7704;DHT22;3894;49.700;10.770;2023-07-31T13:48:44;23.40;99.90
7704;DHT22;3894;49.700;10.770;2023-07-31T13:51:09;23.50;99.90
7704;DHT22;3894;49.700;10.770;2023-07-31T13:53:35;23.50;99.90
7704;DHT22;3894;49.700;10.770;2023-07-31T13:56:01;23.40;99.90
7704;DHT22;3894;49.700;10.770;2023-07-31T13:58:26;23.40;99.90
7704;DHT22;3894;49.700;10.770;2023-07-31T14:00:52;23.40;99.90
7704;DHT22;3894;49.700;10.770;2023-07-31T14:03:17;23.40;99.90
7704;DHT22;3894;49.700;10.770;2023-07-31T14:05:43;23.30;99.90
7704;DHT22;3894;49.700;10.770;2023-07-31T14:08:08;23.20;99.90
7704;DHT22;3894;49.700;10.770;2023-07-31T14:10:34;23.20;99.90
7704;DHT22;3894;49.700;10.770;2023-07-31T14:12:59;23.10;99.90
7704;DHT22;3894;49.700;10.770;2023-07-31T14:15:25;23.00;99.90
7704;DHT22;3894;49.700;10.770;2023-07-31T14:17:50;23.10;99.90
7704;DHT22;3894;49.700;10.770;2023-07-31T14:20:17;23.10;99.90
7704;DHT22;3894;49.700;10.770;2023-07-31T14:22:42;23.10;99.90
7704;DHT22;3894;49.700;10.770;2023-07-31T14:25:08;23.00;99.90
7704;DHT22;3894;49.700;10.770;2023-07-31T14:27:35;23.00;99.90
7704;DHT22;3894;49.700;10.770;2023-07-31T14:30:01;23.00;99.90
7704;DHT22;3894;49.700;10.770;2023-07-31T14:32:27;23.00;99.90
7704;DHT22;3894;49.700;10.770;2023-07-31T14:34:52;23.00;99.90
7704;DHT22;3894;49.700;10.770;2023-07-31T14:37:19;23.00;99.90
7704;DHT22;3894;49.700;10.770;2023-07-31T14:39:45;23.00;99.90
7704;DHT22;3894;49.700;10.770;2023-07-31T14:42:10;22.90;99.90
7704;DHT22;3894;49.700;10.770;2023-07-31T14:44:36;22.80;99.90
7704;DHT22;3894;49.700;10.770;2023-07-31T14:47:01;22.80;99.90
7704;DHT22;3894;49.700;10.770;2023-07-31T14:49:27;22.80;99.90
7704;DHT22;3894;49.700;10.770;2023-07-31T14:51:55;22.80;99.90
7704;DHT22;3894;49.700;10.770;2023-07-31T14:54:20;22.80;99.90
7704;DHT22;3894;49.700;10.770;2023-07-31T14:56:46;22.80;99.90
7704;DHT22;3894;49.700;10.770;2023-07-31T14:59:11;22.80;99.90
7704;DHT22;3894;49.700;10.770;2023-07-31T15:01:37;22.80;99.90
7704;DHT22;3894;49.700;10.770;2023-07-31T15:04:03;22.60;99.90
7704;DHT22;3894;49.700;10.770;2023-07-31T15:06:29;22.50;99.90
7704;DHT22;3894;49.700;10.770;2023-07-31T15:08:54;22.60;99.90
7704;DHT22;3894;49.700;10.770;2023-07-31T15:11:20;22.50;99.90
7704;DHT22;3894;49.700;10.770;2023-07-31T15:13:45;22.40;99.90
7704;DHT22;3894;49.700;10.770;2023-07-31T15:16:11;22.30;99.90
7704;DHT22;3894;49.700;10.770;2023-07-31T15:18:37;22.30;99.90
7704;DHT22;3894;49.700;10.770;2023-07-31T15:21:02;22.30;99.90
7704;DHT22;3894;49.700;10.770;2023-07-31T15:23:28;22.40;99.90
7704;DHT22;3894;49.700;10.770;2023-07-31T15:25:54;22.40;99.90
7704;DHT22;3894;49.700;10.770;2023-07-31T15:28:19;22.40;99.90
7704;DHT22;3894;49.700;10.770;2023-07-31T15:30:45;22.40;99.90
7704;DHT22;3894;49.700;10.770;2023-07-31T15:33:10;22.40;99.90
7704;DHT22;3894;49.700;10.770;2023-07-31T15:35:36;22.30;99.90
7704;DHT22;3894;49.700;10.770;2023-07-31T15:38:01;22.40;99.90
7704;DHT22;3894;49.700;10.770;2023-07-31T15:40:27;22.40;99.90
7704;DHT22;3894;49.700;10.770;2023-07-31T15:42:53;22.40;99.90
7704;DHT22;3894;49.700;10.770;2023-07-31T15:45:18;22.50;99.90
7704;DHT22;3894;49.700;10.770;2023-07-31T15:47:44;22.60;99.90
7704;DHT22;3894;49.700;10.770;2023-07-31T15:50:10;22.60;99.90
7704;DHT22;3894;49.700;10.770;2023-07-31T15:52:35;22.60;99.90